createdAt,value
2019-04-04T00:01:40.859Z,56.60
2019-04-04T00:04:10.275Z,47.70
2019-04-04T00:06:39.676Z,41.37
2019-04-04T00:09:11.129Z,39.97
2019-04-04T00:11:40.975Z,52.37
2019-04-04T00:14:13.040Z,51.77
2019-04-04T00:16:42.895Z,52.17
2019-04-04T00:19:12.244Z,56.97
2019-04-04T00:21:42.654Z,47.97
2019-04-04T00:24:12.150Z,41.67
2019-04-04T00:26:41.977Z,46.10
2019-04-04T00:29:11.973Z,53.57
2019-04-04T00:31:41.437Z,53.63
2019-04-04T00:34:13.674Z,51.00
2019-04-04T00:36:43.533Z,48.17
2019-04-04T00:39:13.019Z,49.50
2019-04-04T00:41:42.967Z,42.77
2019-04-04T00:44:13.682Z,50.20
2019-04-04T00:46:43.128Z,51.33
2019-04-04T00:49:12.474Z,52.47
2019-04-04T00:51:41.874Z,53.77
2019-04-04T00:54:12.086Z,59.87
2019-04-04T00:56:42.396Z,53.20
2019-04-04T00:59:11.903Z,49.60
2019-04-04T01:01:41.375Z,53.90
2019-04-04T01:04:10.775Z,46.83
2019-04-04T01:06:40.222Z,54.80
2019-04-04T01:09:13.331Z,51.93
2019-04-04T01:11:40.732Z,52.10
2019-04-04T01:14:10.484Z,61.70
2019-04-04T01:16:39.904Z,56.70
2019-04-04T01:19:09.986Z,53.23
2019-04-04T01:21:41.141Z,54.30
2019-04-04T01:24:10.546Z,58.43
2019-04-04T01:26:39.994Z,54.63
2019-04-04T01:29:10.962Z,52.63
2019-04-04T01:31:40.573Z,55.60
2019-04-04T01:34:09.928Z,54.67
2019-04-04T01:36:40.526Z,57.07
2019-04-04T01:39:10.246Z,51.20
2019-04-04T01:41:39.515Z,53.27
2019-04-04T01:44:11.183Z,44.57
2019-04-04T01:46:40.091Z,63.70
2019-04-04T01:49:09.524Z,48.97
2019-04-04T01:51:38.990Z,62.57
2019-04-04T01:54:08.327Z,58.67
2019-04-04T01:56:37.731Z,55.20
2019-04-04T01:59:07.263Z,64.50
2019-04-04T02:01:37.879Z,57.17
2019-04-04T02:04:07.308Z,54.20
2019-04-04T02:06:36.714Z,53.73
2019-04-04T02:09:07.713Z,60.00
2019-04-04T02:11:37.619Z,59.07
2019-04-04T02:14:07.679Z,60.77
2019-04-04T02:16:38.272Z,71.17
2019-04-04T02:19:07.642Z,63.73
2019-04-04T02:21:37.367Z,59.10
2019-04-04T02:24:06.828Z,58.57
2019-04-04T02:26:36.739Z,58.93
2019-04-04T02:29:06.268Z,59.43
2019-04-04T02:31:39.389Z,57.80
2019-04-04T02:34:08.748Z,55.53
2019-04-04T02:36:38.534Z,55.70
2019-04-04T02:39:10.809Z,49.87
2019-04-04T02:41:40.197Z,45.27
2019-04-04T02:44:10.932Z,48.83
2019-04-04T02:46:44.062Z,54.37
2019-04-04T02:49:12.025Z,68.20
2019-04-04T02:51:41.640Z,56.90
2019-04-04T02:54:13.957Z,55.37
2019-04-04T02:56:44.881Z,50.27
2019-04-04T02:59:17.276Z,55.20
2019-04-04T03:01:45.390Z,60.43
2019-04-04T03:04:14.793Z,55.20
2019-04-04T03:06:44.369Z,49.07
2019-04-04T03:09:13.799Z,55.87
2019-04-04T03:11:43.998Z,50.03
2019-04-04T03:14:13.584Z,55.07
2019-04-04T03:16:43.205Z,53.53
2019-04-04T03:19:13.092Z,51.97
2019-04-04T03:21:42.466Z,48.30
2019-04-04T03:24:11.828Z,61.57
2019-04-04T03:26:41.317Z,60.50
2019-04-04T03:29:10.962Z,48.37
2019-04-04T03:31:40.592Z,53.03
2019-04-04T03:34:12.960Z,50.17
2019-04-04T03:36:44.311Z,54.37
2019-04-04T03:39:13.697Z,53.67
2019-04-04T03:41:43.155Z,53.47
2019-04-04T03:44:12.506Z,57.60
2019-04-04T03:46:41.959Z,58.90
2019-04-04T03:49:30.438Z,58.10
2019-04-04T03:51:59.896Z,57.20
2019-04-04T03:54:30.455Z,48.77
2019-04-04T03:57:01.132Z,48.93
2019-04-04T03:59:32.374Z,46.00
2019-04-04T04:02:01.754Z,53.63
2019-04-04T04:04:31.667Z,43.93
2019-04-04T04:07:01.031Z,49.87
2019-04-04T04:09:30.492Z,57.43
2019-04-04T04:11:59.961Z,47.00
2019-04-04T04:14:31.262Z,42.07
2019-04-04T04:17:00.806Z,46.47
2019-04-04T04:19:31.936Z,40.97
2019-04-04T04:22:01.420Z,40.43
2019-04-04T04:24:32.266Z,44.83
2019-04-04T04:27:03.699Z,48.47
2019-04-04T04:29:33.067Z,43.07
2019-04-04T04:32:02.420Z,46.57
2019-04-04T04:34:34.173Z,47.70
2019-04-04T04:37:05.099Z,47.20
2019-04-04T04:39:40.812Z,35.90
2019-04-04T04:42:06.169Z,37.90
2019-04-04T04:44:38.715Z,45.53
2019-04-04T04:47:07.803Z,41.37
2019-04-04T04:49:38.469Z,44.17
2019-04-04T04:52:09.062Z,50.93
2019-04-04T04:54:38.648Z,41.67
2019-04-04T04:57:08.511Z,42.93
2019-04-04T04:59:37.911Z,36.70
2019-04-04T05:02:07.350Z,44.37
2019-04-04T05:04:36.872Z,43.07
2019-04-04T05:07:07.542Z,34.33
2019-04-04T05:09:37.820Z,29.83
2019-04-04T05:12:07.333Z,29.87
2019-04-04T05:14:37.861Z,34.77
2019-04-04T05:17:08.098Z,33.47
2019-04-04T05:19:39.675Z,34.73
2019-04-04T05:22:09.789Z,49.00
2019-04-04T05:24:39.364Z,42.97
2019-04-04T05:27:09.943Z,45.23
2019-04-04T05:29:41.069Z,44.07
2019-04-04T05:32:10.719Z,43.03
2019-04-04T05:34:40.697Z,55.03
2019-04-04T05:37:10.212Z,48.33
2019-04-04T05:39:39.726Z,40.97
2019-04-04T05:42:09.182Z,49.47
2019-04-04T05:44:41.240Z,52.00
2019-04-04T05:47:09.737Z,54.80
2019-04-04T05:49:39.221Z,55.97
2019-04-04T05:52:09.125Z,57.47
2019-04-04T05:54:39.179Z,51.47
2019-04-04T05:57:09.219Z,55.07
2019-04-04T05:59:38.567Z,53.30
2019-04-04T06:02:11.017Z,59.23
2019-04-04T06:04:40.093Z,65.30
2019-04-04T06:07:12.206Z,60.27
2019-04-04T06:09:42.070Z,55.40
2019-04-04T06:12:11.825Z,57.73
2019-04-04T06:14:41.205Z,59.57
2019-04-04T06:17:10.630Z,58.63
2019-04-04T06:19:40.154Z,64.10
2019-04-04T06:22:10.702Z,45.10
2019-04-04T06:24:40.546Z,53.20
2019-04-04T06:27:29.008Z,51.27
2019-04-04T06:29:58.580Z,54.13
2019-04-04T06:32:29.090Z,55.83
2019-04-04T06:34:59.060Z,56.20
2019-04-04T06:37:29.517Z,58.80
2019-04-04T06:40:00.110Z,49.03
2019-04-04T06:42:29.919Z,55.70
2019-04-04T06:44:59.301Z,68.93
2019-04-04T06:47:32.272Z,56.90
2019-04-04T06:50:01.169Z,42.83
2019-04-04T06:52:30.601Z,56.60
2019-04-04T06:54:59.936Z,43.57
2019-04-04T06:57:29.366Z,51.23
2019-04-04T06:59:58.818Z,42.20
2019-04-04T07:02:28.323Z,35.10
2019-04-04T07:04:57.796Z,49.63
2019-04-04T07:07:29.033Z,41.17
2019-04-04T07:09:58.392Z,37.63
2019-04-04T07:12:28.579Z,34.57
2019-04-04T07:14:58.180Z,41.40
2019-04-04T07:17:27.640Z,43.37
2019-04-04T07:19:57.017Z,29.10
2019-04-04T07:22:27.612Z,45.43
2019-04-04T07:25:01.109Z,28.00
2019-04-04T07:27:30.107Z,41.63
2019-04-04T07:30:01.280Z,41.50
2019-04-04T07:32:30.783Z,40.63
2019-04-04T07:35:00.307Z,37.30
2019-04-04T07:37:30.800Z,43.70
2019-04-04T07:40:03.179Z,41.20
2019-04-04T07:42:31.653Z,36.03
2019-04-04T07:45:01.014Z,49.67
2019-04-04T07:47:30.563Z,36.77
2019-04-04T07:49:59.988Z,40.57
2019-04-04T07:52:32.783Z,38.73
2019-04-04T07:55:00.650Z,39.70
2019-04-04T07:57:30.442Z,38.43
2019-04-04T07:59:59.994Z,49.70
2019-04-04T08:02:29.379Z,38.13
2019-04-04T08:04:59.578Z,38.63
2019-04-04T08:07:28.967Z,40.27
2019-04-04T08:09:58.339Z,42.73
2019-04-04T08:12:29.633Z,38.23
2019-04-04T08:14:59.070Z,37.20
2019-04-04T08:17:28.563Z,51.90
2019-04-04T08:19:59.826Z,47.50
2019-04-04T08:22:29.037Z,35.87
2019-04-04T08:24:58.395Z,40.17
2019-04-04T08:27:28.236Z,50.67
2019-04-04T08:29:58.278Z,40.70
2019-04-04T08:32:27.722Z,51.87
2019-04-04T08:34:57.098Z,38.83
2019-04-04T08:37:26.523Z,43.10
2019-04-04T08:39:55.998Z,51.27
2019-04-04T08:42:25.416Z,53.40
2019-04-04T08:44:55.997Z,46.93
2019-04-04T08:47:44.461Z,44.60
2019-04-04T08:50:14.264Z,35.00
2019-04-04T08:52:43.644Z,43.37
2019-04-04T08:55:13.417Z,45.90
2019-04-04T08:57:44.013Z,48.20
2019-04-04T09:00:13.647Z,42.97
2019-04-04T09:02:43.386Z,45.27
2019-04-04T09:05:12.922Z,49.83
2019-04-04T09:07:42.299Z,38.63
2019-04-04T09:10:12.024Z,41.23
2019-04-04T09:12:41.412Z,45.20
2019-04-04T09:15:11.147Z,45.90
2019-04-04T09:17:40.932Z,47.77
2019-04-04T09:20:10.548Z,61.13
2019-04-04T09:22:41.278Z,46.83
2019-04-04T09:25:11.567Z,44.67
2019-04-04T09:27:40.993Z,44.30
2019-04-04T09:30:11.503Z,54.03
2019-04-04T09:32:41.272Z,51.43
2019-04-04T09:35:29.938Z,47.20
2019-04-04T09:37:59.433Z,47.53
2019-04-04T09:40:30.035Z,49.27
2019-04-04T09:42:59.441Z,49.57
2019-04-04T09:45:29.338Z,44.83
2019-04-04T09:47:58.964Z,50.00
2019-04-04T09:50:28.336Z,53.80
2019-04-04T09:52:57.785Z,51.77
2019-04-04T09:55:28.519Z,41.03
2019-04-04T09:57:59.259Z,46.20
2019-04-04T10:00:30.254Z,47.60
2019-04-04T10:02:59.784Z,53.67
2019-04-04T10:05:29.218Z,45.47
2019-04-04T10:07:58.646Z,40.10
2019-04-04T10:10:28.022Z,36.57
2019-04-04T10:12:57.392Z,54.27
2019-04-04T10:15:26.783Z,39.43
2019-04-04T10:17:56.212Z,40.80
2019-04-04T10:20:26.684Z,49.87
2019-04-04T10:22:56.088Z,48.53
2019-04-04T10:25:45.827Z,59.50
2019-04-04T10:28:17.162Z,49.27
2019-04-04T10:30:46.941Z,43.30
2019-04-04T10:33:16.997Z,48.13
2019-04-04T10:35:46.370Z,53.47
2019-04-04T10:38:15.741Z,52.17
2019-04-04T10:40:46.275Z,57.80
2019-04-04T10:43:15.906Z,49.03
2019-04-04T10:45:46.515Z,44.63
2019-04-04T10:48:16.004Z,42.23
2019-04-04T10:50:45.973Z,49.57
2019-04-04T10:53:15.324Z,69.17
2019-04-04T10:55:44.680Z,51.93
2019-04-04T10:58:14.099Z,55.03
2019-04-04T11:00:43.670Z,47.20
2019-04-04T11:03:15.771Z,59.07
2019-04-04T11:05:45.228Z,59.90
2019-04-04T11:08:14.575Z,54.00
2019-04-04T11:10:43.948Z,56.70
2019-04-04T11:13:13.352Z,47.90
2019-04-04T11:15:42.729Z,59.53
2019-04-04T11:18:12.245Z,60.07
2019-04-04T11:20:41.645Z,52.50
2019-04-04T11:23:11.032Z,64.57
2019-04-04T11:25:40.478Z,51.60
2019-04-04T11:28:11.183Z,51.37
2019-04-04T11:30:41.821Z,55.10
2019-04-04T11:33:11.164Z,51.37
2019-04-04T11:35:40.831Z,58.17
2019-04-04T11:38:10.191Z,51.30
2019-04-04T11:40:39.694Z,66.53
2019-04-04T11:43:09.062Z,55.20
2019-04-04T11:45:39.782Z,61.77
2019-04-04T11:48:09.361Z,58.73
2019-04-04T11:50:39.885Z,54.00
2019-04-04T11:53:09.492Z,52.60
2019-04-04T11:55:38.848Z,62.47
2019-04-04T11:58:08.674Z,75.07
2019-04-04T12:00:39.150Z,65.57
2019-04-04T12:03:08.586Z,62.13
2019-04-04T12:05:38.033Z,62.97
2019-04-04T12:08:07.531Z,67.63
2019-04-04T12:10:36.966Z,61.97
2019-04-04T12:13:06.538Z,62.07
2019-04-04T12:15:36.205Z,67.73
2019-04-04T12:18:05.648Z,66.70
2019-04-04T12:20:35.164Z,60.83
2019-04-04T12:23:04.629Z,58.70
2019-04-04T12:25:33.956Z,61.67
2019-04-04T12:28:03.359Z,60.53
2019-04-04T12:30:32.774Z,62.33
2019-04-04T12:33:02.167Z,52.17
2019-04-04T12:35:31.612Z,58.27
2019-04-04T12:38:01.340Z,61.23
2019-04-04T12:40:30.698Z,61.43
2019-04-04T12:43:01.302Z,63.20
2019-04-04T12:45:30.648Z,46.07
2019-04-04T12:48:00.049Z,60.33
2019-04-04T12:50:29.539Z,61.77
2019-04-04T12:52:58.940Z,67.23
2019-04-04T12:55:28.390Z,78.23
2019-04-04T12:57:57.877Z,60.70
2019-04-04T13:00:27.211Z,67.63
2019-04-04T13:02:56.559Z,68.70
2019-04-04T13:05:25.915Z,60.60
2019-04-04T13:07:55.298Z,73.13
2019-04-04T13:10:32.892Z,58.30
2019-04-04T13:12:55.909Z,60.53
2019-04-04T13:15:25.330Z,68.23
2019-04-04T13:17:54.664Z,46.23
2019-04-04T13:20:24.077Z,54.27
2019-04-04T13:22:53.377Z,74.73
2019-04-04T13:25:22.736Z,43.23
2019-04-04T13:27:52.221Z,60.53
2019-04-04T13:30:21.952Z,67.47
2019-04-04T13:32:52.927Z,55.83
2019-04-04T13:35:22.403Z,55.67
2019-04-04T13:37:51.950Z,62.43
2019-04-04T13:40:21.867Z,60.43
2019-04-04T13:42:53.126Z,70.10
2019-04-04T13:45:25.274Z,66.87
2019-04-04T13:47:56.467Z,52.53
2019-04-04T13:50:25.823Z,68.40
2019-04-04T13:52:55.185Z,62.13
2019-04-04T13:55:25.177Z,81.10
2019-04-04T13:57:57.038Z,59.93
2019-04-04T14:00:26.650Z,73.03
2019-04-04T14:02:58.078Z,55.57
2019-04-04T14:05:28.640Z,69.07
2019-04-04T14:08:00.315Z,68.97
2019-04-04T14:10:29.225Z,51.97
2019-04-04T14:12:59.482Z,55.97
2019-04-04T14:15:28.864Z,61.57
2019-04-04T14:17:59.762Z,52.83
2019-04-04T14:20:29.156Z,68.90
2019-04-04T14:22:58.588Z,63.33
2019-04-04T14:25:29.527Z,67.33
2019-04-04T14:27:59.195Z,62.33
2019-04-04T14:30:28.569Z,59.83
2019-04-04T14:32:59.030Z,69.43
2019-04-04T14:35:28.607Z,67.17
2019-04-04T14:37:57.969Z,62.27
2019-04-04T14:40:28.005Z,60.63
2019-04-04T14:42:57.344Z,64.00
2019-04-04T14:45:26.708Z,70.00
2019-04-04T14:47:56.529Z,63.67
2019-04-04T14:50:28.050Z,45.90
2019-04-04T14:52:57.074Z,55.97
2019-04-04T14:55:26.554Z,52.07
2019-04-04T14:57:55.961Z,48.83
2019-04-04T15:00:25.409Z,50.10
2019-04-04T15:02:54.849Z,61.57
2019-04-04T15:05:24.791Z,59.07
2019-04-04T15:07:55.291Z,56.40
2019-04-04T15:10:25.775Z,52.47
2019-04-04T15:12:56.379Z,60.23
2019-04-04T15:15:26.471Z,62.53
2019-04-04T15:17:57.761Z,59.87
2019-04-04T15:20:27.205Z,61.10
2019-04-04T15:22:56.635Z,80.40
2019-04-04T15:25:27.886Z,68.33
2019-04-04T15:27:57.528Z,54.37
2019-04-04T15:30:26.967Z,70.13
2019-04-04T15:32:56.467Z,58.70
2019-04-04T15:35:25.877Z,68.50
2019-04-04T15:37:55.340Z,70.07
2019-04-04T15:40:24.886Z,66.10
2019-04-04T15:42:54.747Z,65.57
2019-04-04T15:45:24.271Z,68.00
2019-04-04T15:47:53.890Z,72.47
2019-04-04T15:50:23.320Z,83.53
2019-04-04T15:52:53.735Z,78.63
2019-04-04T15:55:23.154Z,74.87
2019-04-04T15:57:52.618Z,84.37
2019-04-04T16:00:22.240Z,85.37
2019-04-04T16:02:51.856Z,65.00
2019-04-04T16:05:21.280Z,63.47
2019-04-04T16:07:50.775Z,56.10
2019-04-04T16:10:20.271Z,62.20
2019-04-04T16:12:49.718Z,82.33
2019-04-04T16:15:19.067Z,74.37
2019-04-04T16:17:48.689Z,72.37
2019-04-04T16:20:18.591Z,88.87
2019-04-04T16:22:48.110Z,82.07
2019-04-04T16:25:17.985Z,94.15
2019-04-04T16:27:47.415Z,72.90
2019-04-04T16:30:16.988Z,90.93
2019-04-04T16:32:46.375Z,99.90
2019-04-04T16:35:15.718Z,80.40
2019-04-04T16:37:45.022Z,96.93
2019-04-04T16:40:14.831Z,87.77
2019-04-04T16:42:44.298Z,84.80
2019-04-04T16:45:25.703Z,73.53
2019-04-04T16:47:56.618Z,93.53
2019-04-04T16:50:25.954Z,80.07
2019-04-04T16:52:55.372Z,90.90
2019-04-04T16:55:24.782Z,110.97
2019-04-04T16:57:55.863Z,89.37
2019-04-04T17:00:26.408Z,79.77
2019-04-04T17:02:55.833Z,119.27
2019-04-04T17:05:25.296Z,84.47
2019-04-04T17:07:54.864Z,96.30
2019-04-04T17:10:24.244Z,89.20
2019-04-04T17:12:53.693Z,92.87
2019-04-04T17:15:23.078Z,106.30
2019-04-04T17:17:52.434Z,84.23
2019-04-04T17:20:22.007Z,91.43
2019-04-04T17:22:51.610Z,105.40
2019-04-04T17:25:20.958Z,111.57
2019-04-04T17:27:50.394Z,90.23
2019-04-04T17:30:21.009Z,101.90
2019-04-04T17:32:51.937Z,97.57
2019-04-04T17:35:21.445Z,112.33
2019-04-04T17:37:52.799Z,96.60
2019-04-04T17:40:22.159Z,106.40
2019-04-04T17:42:51.584Z,96.07
2019-04-04T17:45:21.192Z,111.70
2019-04-04T17:47:51.283Z,102.47
2019-04-04T17:50:23.087Z,87.97
2019-04-04T17:52:52.883Z,111.47
2019-04-04T17:55:22.328Z,111.53
2019-04-04T17:57:52.428Z,113.27
2019-04-04T18:00:40.951Z,93.73
2019-04-04T18:03:10.432Z,98.93
2019-04-04T18:05:39.837Z,88.13
2019-04-04T18:08:09.163Z,107.20
2019-04-04T18:10:38.549Z,98.67
2019-04-04T18:13:09.536Z,87.93
2019-04-04T18:15:38.914Z,92.33
2019-04-04T18:18:08.396Z,115.80
2019-04-04T18:20:39.092Z,106.73
2019-04-04T18:23:08.452Z,82.90
2019-04-04T18:25:38.011Z,96.10
2019-04-04T18:28:07.540Z,106.53
2019-04-04T18:30:38.092Z,85.43
2019-04-04T18:33:07.494Z,100.60
2019-04-04T18:35:36.999Z,109.83
2019-04-04T18:38:06.904Z,89.90
2019-04-04T18:40:37.457Z,79.10
2019-04-04T18:43:06.957Z,109.00
2019-04-04T18:45:36.473Z,80.30
2019-04-04T18:48:05.888Z,91.80
2019-04-04T18:50:46.836Z,94.50
2019-04-04T18:53:16.318Z,86.67
2019-04-04T18:55:45.804Z,110.93
2019-04-04T18:58:15.405Z,92.63
2019-04-04T19:00:44.930Z,89.93
2019-04-04T19:03:14.295Z,99.40
2019-04-04T19:05:43.816Z,96.37
2019-04-04T19:08:13.244Z,104.20
2019-04-04T19:10:43.717Z,88.53
2019-04-04T19:13:13.108Z,83.73
2019-04-04T19:15:44.182Z,91.87
2019-04-04T19:18:13.622Z,92.73
2019-04-04T19:20:43.039Z,100.63
2019-04-04T19:23:12.761Z,87.70
2019-04-04T19:25:42.194Z,93.13
2019-04-04T19:28:11.544Z,102.57
2019-04-04T19:30:41.499Z,80.67
2019-04-04T19:33:10.834Z,101.27
2019-04-04T19:35:40.215Z,71.70
2019-04-04T19:38:09.705Z,92.03
2019-04-04T19:40:39.208Z,87.20
2019-04-04T19:43:17.902Z,93.30
2019-04-04T19:45:40.118Z,101.03
2019-04-04T19:48:09.686Z,102.67
2019-04-04T19:50:39.421Z,100.43
2019-04-04T19:53:09.339Z,88.33
2019-04-04T19:55:38.836Z,109.93
2019-04-04T19:58:08.416Z,84.37
2019-04-04T20:00:37.875Z,88.03
2019-04-04T20:03:08.340Z,90.83
2019-04-04T20:05:37.673Z,88.57
2019-04-04T20:08:07.428Z,99.03
2019-04-04T20:10:36.800Z,93.67
2019-04-04T20:13:06.159Z,98.77
2019-04-04T20:15:35.538Z,94.07
2019-04-04T20:18:05.025Z,87.43
2019-04-04T20:20:34.414Z,75.50
2019-04-04T20:23:22.873Z,86.30
2019-04-04T20:25:52.218Z,79.77
2019-04-04T20:28:21.552Z,88.70
2019-04-04T20:30:50.953Z,76.67
2019-04-04T20:33:20.379Z,84.20
2019-04-04T20:35:49.762Z,78.97
2019-04-04T20:38:19.488Z,61.53
2019-04-04T20:40:49.108Z,63.80
2019-04-04T20:43:18.567Z,69.73
2019-04-04T20:45:48.023Z,60.67
2019-04-04T20:48:17.385Z,54.50
2019-04-04T20:50:46.741Z,77.27
2019-04-04T20:53:16.159Z,61.30
2019-04-04T20:55:45.805Z,71.43
2019-04-04T20:58:15.251Z,82.70
2019-04-04T21:00:44.898Z,66.53
2019-04-04T21:03:14.269Z,85.67
2019-04-04T21:05:43.668Z,67.40
2019-04-04T21:08:13.137Z,68.90
2019-04-04T21:10:42.481Z,65.50
2019-04-04T21:13:11.863Z,65.73
2019-04-04T21:15:41.335Z,73.70
2019-04-04T21:18:13.694Z,89.27
2019-04-04T21:20:41.829Z,67.30
2019-04-04T21:23:11.219Z,81.13
2019-04-04T21:25:40.714Z,86.90
2019-04-04T21:28:10.079Z,70.47
2019-04-04T21:30:39.459Z,81.53
2019-04-04T21:33:08.891Z,74.80
2019-04-04T21:35:38.310Z,92.30
2019-04-04T21:38:07.694Z,91.30
2019-04-04T21:40:37.053Z,99.50
2019-04-04T21:43:06.358Z,88.40
2019-04-04T21:45:36.007Z,55.73
2019-04-04T21:48:05.324Z,101.27
2019-04-04T21:50:34.706Z,87.93
2019-04-04T21:53:04.144Z,97.50
2019-04-04T21:55:33.570Z,91.90
2019-04-04T21:58:03.610Z,101.90
2019-04-04T22:00:42.105Z,78.23
2019-04-04T22:03:11.580Z,97.07
2019-04-04T22:05:41.117Z,74.83
2019-04-04T22:08:10.613Z,84.57
2019-04-04T22:10:39.991Z,80.07
2019-04-04T22:13:09.569Z,91.47
2019-04-04T22:15:39.013Z,71.07
2019-04-04T22:18:08.337Z,55.13
2019-04-04T22:20:37.729Z,75.17
2019-04-04T22:23:07.451Z,64.47
2019-04-04T22:25:37.019Z,65.00
2019-04-04T22:28:06.447Z,61.87
2019-04-04T22:30:35.951Z,52.70
2019-04-04T22:33:05.296Z,47.40
2019-04-04T22:35:34.731Z,86.23
2019-04-04T22:38:04.094Z,87.03
2019-04-04T22:40:33.489Z,34.60
2019-04-04T22:43:02.965Z,36.93
2019-04-04T22:45:32.726Z,64.63
2019-04-04T22:48:02.136Z,57.20
2019-04-04T22:50:31.511Z,50.40
2019-04-04T22:53:00.936Z,45.07
2019-04-04T22:55:30.335Z,54.57
2019-04-04T22:57:59.758Z,50.37
2019-04-04T23:00:29.618Z,61.10
2019-04-04T23:03:00.898Z,64.53
2019-04-04T23:05:30.276Z,65.50
2019-04-04T23:07:59.749Z,60.50
2019-04-04T23:10:29.143Z,38.63
2019-04-04T23:12:58.580Z,36.13
2019-04-04T23:15:27.968Z,33.13
2019-04-04T23:17:57.350Z,42.57
2019-04-04T23:20:26.802Z,25.57
2019-04-04T23:22:56.328Z,30.97
2019-04-04T23:25:25.823Z,28.00
2019-04-04T23:27:55.143Z,26.57
2019-04-04T23:30:24.540Z,28.60
2019-04-04T23:32:53.925Z,26.90
2019-04-04T23:35:23.288Z,26.57
2019-04-04T23:37:52.660Z,23.80
2019-04-04T23:40:22.043Z,25.83
2019-04-04T23:42:51.383Z,19.70
2019-04-04T23:45:21.044Z,16.63
2019-04-04T23:47:50.412Z,16.73
2019-04-04T23:50:19.766Z,17.80
2019-04-04T23:52:49.201Z,17.73
2019-04-04T23:55:18.690Z,14.77
2019-04-04T23:57:48.049Z,30.60
